Time;durP1;ratioP1;P1;durP2;ratioP2;P2;SDS_P1;SDS_P2;PMS_P1;PMS_P2;Temp;Humidity;BMP_temperature;BMP_pressure;BME280_temperature;BME280_humidity;BME280_pressure;Samples;Min_cycle;Max_cycle;Signal;HPM_P1;HPM_P2
2022/11/26 00:00:59;;;;;;;17.87;14.17;;;6.40;99.90;;;;;;5050221;28;20465;-50
2022/11/26 00:03:26;;;;;;;18.50;14.20;;;6.40;99.90;;;;;;5051792;28;20543;-51
2022/11/26 00:05:55;;;;;;;19.80;14.57;;;6.50;99.90;;;;;;5049109;28;20531;-51
2022/11/26 00:08:28;;;;;;;15.53;13.40;;;6.50;99.90;;;;;;5046713;28;20519;-50
2022/11/26 00:10:55;;;;;;;20.60;14.73;;;6.50;99.90;;;;;;5046947;28;20462;-51
2022/11/26 00:13:24;;;;;;;19.47;13.50;;;6.50;99.90;;;;;;5047514;28;20560;-51
2022/11/26 00:15:52;;;;;;;16.93;13.83;;;6.60;99.90;;;;;;5048666;28;20454;-51
2022/11/26 00:18:19;;;;;;;16.37;13.83;;;6.50;99.90;;;;;;5049363;28;20462;-52
2022/11/26 00:20:49;;;;;;;21.70;14.10;;;6.50;99.90;;;;;;5050792;28;20507;-52
2022/11/26 00:23:20;;;;;;;18.03;12.93;;;6.50;99.90;;;;;;5044562;28;20572;-51
2022/11/26 00:25:50;;;;;;;19.13;14.50;;;6.50;99.90;;;;;;5047871;28;20462;-51
2022/11/26 00:28:26;;;;;;;21.97;14.90;;;6.50;99.90;;;;;;5047410;28;20976;-51
2022/11/26 00:30:54;;;;;;;18.73;13.87;;;6.50;99.90;;;;;;5043828;28;20550;-51
2022/11/26 00:33:21;;;;;;;18.50;14.13;;;6.60;99.90;;;;;;5046894;28;20464;-51
2022/11/26 00:35:49;;;;;;;17.90;14.13;;;6.60;99.90;;;;;;5048381;28;20454;-52
2022/11/26 00:38:19;;;;;;;19.57;13.57;;;6.50;99.90;;;;;;5045360;28;20489;-51
2022/11/26 00:40:47;;;;;;;20.47;15.77;;;6.60;99.90;;;;;;5050817;28;20450;-52
2022/11/26 00:43:16;;;;;;;25.23;14.27;;;6.60;99.90;;;;;;5052169;28;20594;-51
2022/11/26 00:45:42;;;;;;;17.93;14.10;;;6.60;99.90;;;;;;5052743;28;20461;-51
2022/11/26 00:48:09;;;;;;;22.07;13.47;;;6.60;99.90;;;;;;5045783;28;20462;-51
2022/11/26 00:50:39;;;;;;;25.43;14.03;;;6.60;99.90;;;;;;5054774;28;20479;-51
2022/11/26 00:53:07;;;;;;;18.83;14.30;;;6.60;99.90;;;;;;5048775;28;20450;-51
2022/11/26 00:55:38;;;;;;;17.93;14.87;;;6.70;99.90;;;;;;5048712;28;20948;-51
2022/11/26 00:58:07;;;;;;;27.20;15.40;;;6.70;99.90;;;;;;5047433;28;20611;-51
2022/11/26 01:00:35;;;;;;;27.07;14.00;;;6.70;99.90;;;;;;5045717;28;20459;-52
2022/11/26 01:03:02;;;;;;;21.43;14.40;;;6.70;99.90;;;;;;5046396;28;20651;-51
2022/11/26 01:05:32;;;;;;;20.93;14.50;;;6.70;99.90;;;;;;5048684;28;20481;-50
2022/11/26 01:08:01;;;;;;;25.77;14.33;;;6.70;99.90;;;;;;5046555;28;20465;-52
2022/11/26 01:10:31;;;;;;;21.40;15.97;;;6.60;99.90;;;;;;5048780;28;20470;-51
2022/11/26 01:12:57;;;;;;;29.30;16.00;;;6.70;99.90;;;;;;5048966;28;20485;-51
2022/11/26 01:15:26;;;;;;;19.57;13.67;;;6.70;99.90;;;;;;5046302;28;20516;-50
2022/11/26 01:17:53;;;;;;;20.13;15.77;;;6.80;99.90;;;;;;5048170;28;20866;-52
2022/11/26 01:20:25;;;;;;;24.93;15.70;;;6.80;99.90;;;;;;5050967;28;20943;-52
2022/11/26 01:22:53;;;;;;;20.80;14.77;;;6.70;99.90;;;;;;5051555;28;20474;-52
2022/11/26 01:25:20;;;;;;;24.47;15.20;;;6.80;99.90;;;;;;5052301;28;20462;-51
2022/11/26 01:27:47;;;;;;;22.47;15.33;;;6.80;99.90;;;;;;5043940;28;20520;-51
2022/11/26 01:30:20;;;;;;;21.03;14.63;;;6.80;99.90;;;;;;5052698;28;20509;-50
2022/11/26 01:32:49;;;;;;;21.67;15.60;;;6.80;99.90;;;;;;5044188;28;20462;-51
2022/11/26 01:35:16;;;;;;;27.17;15.70;;;6.80;99.90;;;;;;5049272;28;20462;-51
2022/11/26 01:37:42;;;;;;;24.73;16.73;;;6.80;99.90;;;;;;5059482;28;21031;-51
2022/11/26 01:40:45;;;;;;;24.97;15.50;;;6.80;99.90;;;;;;5056866;28;20481;-51
2022/11/26 01:43:16;;;;;;;24.73;15.17;;;6.80;99.90;;;;;;5044052;28;20539;-51
2022/11/26 01:45:43;;;;;;;21.63;15.63;;;6.80;99.90;;;;;;5047593;28;20494;-51
2022/11/26 01:48:23;;;;;;;19.10;15.20;;;6.80;99.90;;;;;;5047461;28;20462;-50
2022/11/26 01:51:00;;;;;;;22.70;13.87;;;6.80;99.90;;;;;;5048522;28;20489;-51
2022/11/26 01:53:33;;;;;;;32.13;15.97;;;6.80;99.90;;;;;;5050548;28;20488;-51
2022/11/26 01:56:05;;;;;;;25.70;15.07;;;6.80;99.90;;;;;;5046767;28;21247;-51
2022/11/26 01:58:34;;;;;;;22.30;15.43;;;6.80;99.90;;;;;;5051369;28;20901;-51
2022/11/26 02:01:01;;;;;;;26.50;16.33;;;6.80;99.90;;;;;;5054075;28;20501;-51
2022/11/26 02:03:33;;;;;;;21.20;14.63;;;6.80;99.90;;;;;;5045780;28;20487;-50
2022/11/26 02:06:03;;;;;;;24.70;15.60;;;6.80;99.90;;;;;;5060435;28;20867;-51
2022/11/26 02:08:33;;;;;;;31.83;17.40;;;6.80;99.90;;;;;;5044208;28;20519;-51
2022/11/26 02:11:14;;;;;;;21.37;13.73;;;6.80;99.90;;;;;;5045126;28;20462;-50
2022/11/26 02:13:41;;;;;;;20.50;15.40;;;6.80;99.90;;;;;;5042944;28;20470;-50
2022/11/26 02:16:12;;;;;;;23.93;15.57;;;6.80;99.90;;;;;;5046147;28;20458;-51
2022/11/26 02:18:44;;;;;;;18.10;14.07;;;6.80;99.90;;;;;;5050359;28;21197;-51
2022/11/26 02:21:18;;;;;;;25.03;15.67;;;6.80;99.90;;;;;;5046677;28;20974;-51
2022/11/26 02:24:07;;;;;;;19.80;14.17;;;6.80;99.90;;;;;;5046145;28;21277;-51
2022/11/26 02:26:54;;;;;;;25.80;16.70;;;6.90;99.90;;;;;;5050647;28;20470;-51
2022/11/26 02:29:28;;;;;;;30.80;16.33;;;6.90;99.90;;;;;;5043582;28;20543;-51
2022/11/26 02:32:00;;;;;;;26.47;16.00;;;6.90;99.90;;;;;;5045346;28;20535;-51
2022/11/26 02:34:33;;;;;;;24.13;15.60;;;6.90;99.90;;;;;;5050711;28;20458;-51
2022/11/26 02:37:03;;;;;;;28.47;15.37;;;6.90;99.90;;;;;;5046682;28;20458;-51
2022/11/26 02:39:30;;;;;;;25.70;14.30;;;6.90;99.90;;;;;;5046719;28;20473;-51
2022/11/26 02:41:59;;;;;;;22.20;14.83;;;6.90;99.90;;;;;;5044840;28;21595;-51
2022/11/26 02:44:30;;;;;;;26.27;17.23;;;6.90;99.90;;;;;;5051361;28;20500;-52
2022/11/26 02:47:02;;;;;;;27.77;17.10;;;6.90;99.90;;;;;;5049164;28;20549;-51
2022/11/26 02:49:31;;;;;;;26.43;17.10;;;6.90;99.90;;;;;;5048882;28;20513;-51
2022/11/26 02:52:01;;;;;;;30.53;17.37;;;6.90;99.90;;;;;;5052521;28;20544;-51
2022/11/26 02:54:29;;;;;;;25.67;15.77;;;6.90;99.90;;;;;;5053408;28;20503;-50
2022/11/26 02:56:57;;;;;;;24.20;15.47;;;6.90;99.90;;;;;;5048223;28;20913;-51
2022/11/26 02:59:24;;;;;;;27.33;16.53;;;6.90;99.90;;;;;;5045873;28;20482;-50
2022/11/26 03:01:56;;;;;;;24.80;16.07;;;6.90;99.90;;;;;;5047872;28;20515;-51
2022/11/26 03:04:27;;;;;;;26.73;15.03;;;6.90;99.90;;;;;;5055227;28;20511;-51
2022/11/26 03:06:56;;;;;;;31.50;15.33;;;6.90;99.90;;;;;;5054920;28;20463;-51
2022/11/26 03:09:23;;;;;;;30.70;16.50;;;6.90;99.90;;;;;;5048861;28;20497;-51
2022/11/26 03:11:50;;;;;;;32.27;17.53;;;6.90;99.90;;;;;;5051176;28;20503;-51
2022/11/26 03:14:17;;;;;;;25.70;16.67;;;7.00;99.90;;;;;;5056097;28;20932;-51
2022/11/26 03:16:43;;;;;;;29.90;17.67;;;6.90;99.90;;;;;;5051534;28;20858;-51
2022/11/26 03:19:10;;;;;;;30.07;16.60;;;6.90;99.90;;;;;;5051742;28;20473;-51
2022/11/26 03:21:38;;;;;;;30.03;16.17;;;7.00;99.90;;;;;;5049527;28;20539;-51
2022/11/26 03:24:05;;;;;;;33.97;16.23;;;7.00;99.90;;;;;;5050923;28;20482;-51
2022/11/26 03:26:31;;;;;;;27.13;15.33;;;7.00;99.90;;;;;;5053200;28;20466;-51
2022/11/26 03:28:58;;;;;;;37.57;17.13;;;7.00;99.90;;;;;;5053325;28;20478;-51
2022/11/26 03:31:24;;;;;;;37.70;17.53;;;7.00;99.90;;;;;;5051179;28;20454;-51
2022/11/26 03:33:51;;;;;;;32.77;17.13;;;7.00;99.90;;;;;;5050336;28;20828;-50
2022/11/26 03:36:18;;;;;;;28.60;19.60;;;7.00;99.90;;;;;;5052298;28;20462;-51
2022/11/26 03:38:45;;;;;;;33.20;17.90;;;7.10;99.90;;;;;;5061086;28;20534;-51
2022/11/26 03:41:12;;;;;;;39.10;18.63;;;7.10;99.90;;;;;;5054667;28;20950;-51
2022/11/26 03:43:39;;;;;;;28.73;18.50;;;7.10;99.90;;;;;;5057685;28;20477;-51
2022/11/26 03:46:05;;;;;;;38.20;21.23;;;7.10;99.90;;;;;;5054060;28;20824;-51
2022/11/26 03:48:32;;;;;;;45.67;21.10;;;7.20;99.90;;;;;;5050222;28;20478;-51
2022/11/26 03:50:59;;;;;;;39.17;21.73;;;7.10;99.90;;;;;;5046747;28;20454;-51
2022/11/26 03:53:25;;;;;;;44.93;23.00;;;7.10;99.90;;;;;;5050192;28;20510;-51
2022/11/26 03:55:53;;;;;;;36.97;22.07;;;7.20;99.90;;;;;;5052653;28;20462;-51
2022/11/26 03:58:20;;;;;;;52.47;20.80;;;7.20;99.90;;;;;;5055110;28;20500;-51
2022/11/26 04:00:46;;;;;;;36.20;20.83;;;7.20;99.90;;;;;;5052748;28;20851;-51
2022/11/26 04:03:13;;;;;;;37.00;22.50;;;7.20;99.90;;;;;;5054091;28;20631;-51
2022/11/26 04:05:40;;;;;;;47.57;23.90;;;7.20;99.90;;;;;;5049329;28;20564;-51
2022/11/26 04:08:06;;;;;;;43.30;23.60;;;7.30;99.90;;;;;;5052488;28;20458;-51
2022/11/26 04:10:33;;;;;;;42.30;23.67;;;7.30;99.90;;;;;;5052271;28;20469;-51
2022/11/26 04:13:01;;;;;;;42.30;22.60;;;7.30;99.90;;;;;;5052954;28;20803;-52
2022/11/26 04:15:27;;;;;;;45.23;23.57;;;7.30;99.90;;;;;;5051622;28;20462;-51
2022/11/26 04:17:54;;;;;;;41.83;23.47;;;7.30;99.90;;;;;;5057704;28;20964;-51
2022/11/26 04:20:21;;;;;;;45.53;24.70;;;7.30;99.90;;;;;;5058255;28;20966;-51
2022/11/26 04:22:47;;;;;;;58.67;24.83;;;7.30;99.90;;;;;;5056294;28;20982;-51
2022/11/26 04:25:14;;;;;;;40.83;23.37;;;7.30;99.90;;;;;;5058958;28;20838;-51
2022/11/26 04:27:40;;;;;;;36.67;24.17;;;7.30;99.90;;;;;;5053594;28;20479;-51
2022/11/26 04:30:10;;;;;;;60.17;24.80;;;7.30;99.90;;;;;;5050081;28;20477;-51
2022/11/26 04:32:38;;;;;;;48.97;22.63;;;7.40;99.90;;;;;;5050834;28;21078;-51
2022/11/26 04:35:06;;;;;;;49.27;24.33;;;7.40;99.90;;;;;;5051057;28;20537;-51
2022/11/26 04:37:33;;;;;;;38.40;23.00;;;7.40;99.90;;;;;;5049087;28;20877;-51
2022/11/26 04:40:00;;;;;;;38.43;21.87;;;7.40;99.90;;;;;;5046755;28;20473;-51
2022/11/26 04:42:26;;;;;;;40.27;22.90;;;7.40;99.90;;;;;;5051641;28;20517;-51
2022/11/26 04:44:53;;;;;;;45.90;23.30;;;7.40;99.90;;;;;;5050758;28;20482;-51
2022/11/26 04:47:21;;;;;;;39.23;24.27;;;7.40;99.90;;;;;;5051299;28;20458;-51
2022/11/26 04:49:47;;;;;;;31.63;20.80;;;7.40;99.90;;;;;;5050179;28;20508;-51
2022/11/26 04:52:14;;;;;;;36.10;22.13;;;7.40;99.90;;;;;;5053642;28;20470;-51
2022/11/26 04:54:41;;;;;;;38.60;22.97;;;7.40;99.90;;;;;;5053625;28;20515;-51
2022/11/26 04:57:07;;;;;;;52.57;22.33;;;7.50;99.90;;;;;;5046944;28;20462;-51
2022/11/26 04:59:34;;;;;;;38.93;22.00;;;7.50;99.90;;;;;;5052363;28;20535;-50
2022/11/26 05:02:01;;;;;;;40.27;21.20;;;7.50;99.90;;;;;;5051179;28;20462;-50
2022/11/26 05:04:29;;;;;;;39.10;22.20;;;7.50;99.90;;;;;;5048712;28;20535;-52
2022/11/26 05:06:56;;;;;;;38.73;22.77;;;7.50;99.90;;;;;;5045714;28;20462;-51
2022/11/26 05:09:22;;;;;;;33.60;21.53;;;7.50;99.90;;;;;;5048488;28;20547;-51
2022/11/26 05:11:49;;;;;;;41.47;21.60;;;7.50;99.90;;;;;;5045985;28;20458;-52
2022/11/26 05:14:15;;;;;;;39.80;23.40;;;7.50;99.90;;;;;;5054575;28;20462;-51
2022/11/26 05:16:42;;;;;;;45.70;22.70;;;7.50;99.90;;;;;;5043580;28;20511;-51
2022/11/26 05:19:09;;;;;;;43.20;21.90;;;7.50;99.90;;;;;;5046722;28;21252;-52
2022/11/26 05:21:36;;;;;;;42.43;22.13;;;7.50;99.90;;;;;;5050306;28;20523;-51
2022/11/26 05:24:03;;;;;;;36.03;21.80;;;7.50;99.90;;;;;;5055087;28;20567;-52
2022/11/26 05:26:30;;;;;;;32.37;20.27;;;7.50;99.90;;;;;;5055795;28;20458;-52
2022/11/26 05:28:56;;;;;;;28.40;19.80;;;7.50;99.90;;;;;;5056598;28;20511;-51
2022/11/26 05:31:23;;;;;;;32.13;20.60;;;7.50;99.90;;;;;;5044332;28;20528;-51
2022/11/26 05:33:50;;;;;;;40.13;21.50;;;7.50;99.90;;;;;;5048995;28;21017;-51
2022/11/26 05:36:16;;;;;;;41.20;20.27;;;7.50;99.90;;;;;;5050422;28;20458;-51
2022/11/26 05:38:44;;;;;;;40.03;19.17;;;7.50;99.90;;;;;;5045878;28;20486;-51
2022/11/26 05:41:11;;;;;;;36.90;19.70;;;7.50;99.90;;;;;;5046157;28;20461;-50
2022/11/26 05:43:38;;;;;;;28.77;18.07;;;7.50;99.90;;;;;;5048922;28;20874;-51
2022/11/26 05:46:05;;;;;;;32.67;18.20;;;7.50;99.90;;;;;;5050407;28;20461;-51
2022/11/26 05:48:32;;;;;;;25.90;17.13;;;7.50;99.90;;;;;;5045355;28;21003;-51
2022/11/26 05:51:00;;;;;;;26.07;18.00;;;7.50;99.90;;;;;;5046072;28;20462;-52
2022/11/26 05:53:27;;;;;;;34.73;17.40;;;7.40;99.90;;;;;;5054423;28;20461;-52
2022/11/26 05:55:55;;;;;;;29.20;17.13;;;7.40;1.40;;;;;;5046694;28;20544;-52
2022/11/26 05:58:21;;;;;;;30.43;17.97;;;7.40;99.90;;;;;;5048965;28;20497;-52
2022/11/26 06:00:48;;;;;;;34.93;16.87;;;7.50;99.90;;;;;;5044868;28;20543;-51
2022/11/26 06:03:14;;;;;;;29.47;17.57;;;7.50;99.90;;;;;;5046903;28;20484;-50
2022/11/26 06:05:41;;;;;;;28.00;16.80;;;7.40;99.90;;;;;;5047862;28;20980;-52
2022/11/26 06:08:08;;;;;;;29.73;17.80;;;7.40;99.90;;;;;;5054517;28;20469;-52
2022/11/26 06:10:34;;;;;;;28.20;17.97;;;7.40;99.90;;;;;;5076612;22;21029;-52
2022/11/26 06:13:02;;;;;;;29.40;16.60;;;7.40;99.90;;;;;;5068623;28;20514;-53
2022/11/26 06:15:29;;;;;;;26.83;16.00;;;7.50;99.90;;;;;;5067307;28;20480;-53
2022/11/26 06:17:56;;;;;;;33.47;16.80;;;7.40;99.90;;;;;;5065415;28;20453;-53
2022/11/26 06:20:22;;;;;;;28.20;16.47;;;7.40;99.90;;;;;;5054139;28;20508;-52
2022/11/26 06:22:49;;;;;;;34.33;16.17;;;7.50;99.90;;;;;;5049874;28;20458;-52
2022/11/26 06:25:16;;;;;;;26.00;15.57;;;7.40;99.90;;;;;;5050297;28;22224;-52
2022/11/26 06:27:43;;;;;;;23.37;15.10;;;7.40;99.90;;;;;;5045473;28;20912;-53
2022/11/26 06:30:12;;;;;;;19.67;14.37;;;7.50;99.90;;;;;;5051599;28;20481;-52
2022/11/26 06:32:38;;;;;;;25.83;15.30;;;7.40;99.90;;;;;;5050459;28;20576;-52
2022/11/26 06:35:05;;;;;;;30.93;14.60;;;7.40;99.90;;;;;;5050197;28;20943;-53
2022/11/26 06:37:33;;;;;;;18.77;13.50;;;7.50;99.90;;;;;;5050833;28;21024;-53
2022/11/26 06:39:59;;;;;;;27.67;14.20;;;7.50;99.90;;;;;;5050834;28;20482;-54
2022/11/26 06:42:26;;;;;;;25.77;14.33;;;7.40;99.90;;;;;;5050062;28;20542;-52
2022/11/26 06:44:52;;;;;;;26.70;14.10;;;7.40;99.90;;;;;;5052134;28;20490;-53
2022/11/26 06:47:20;;;;;;;26.77;13.53;;;7.40;99.90;;;;;;5048428;28;20465;-53
2022/11/26 06:49:47;;;;;;;28.33;13.60;;;7.50;99.90;;;;;;5051821;28;20567;-52
2022/11/26 06:52:14;;;;;;;26.27;14.07;;;7.50;99.90;;;;;;5049517;28;20454;-52
2022/11/26 06:54:40;;;;;;;22.10;14.20;;;7.50;99.90;;;;;;5051233;28;20969;-52
2022/11/26 06:57:07;;;;;;;35.33;14.60;;;7.50;99.90;;;;;;5049296;28;20458;-54
2022/11/26 06:59:34;;;;;;;32.20;14.47;;;7.50;99.90;;;;;;5052590;28;21052;-53
2022/11/26 07:02:00;;;;;;;21.77;12.10;;;7.50;99.90;;;;;;5049361;28;20519;-53
2022/11/26 07:04:28;;;;;;;29.83;14.30;;;7.50;99.90;;;;;;5050058;28;20477;-52
2022/11/26 07:06:55;;;;;;;25.60;12.30;;;7.50;99.90;;;;;;5045309;28;20470;-53
2022/11/26 07:09:21;;;;;;;25.10;12.60;;;7.50;99.90;;;;;;5046272;28;20485;-52
2022/11/26 07:11:49;;;;;;;29.53;12.70;;;7.50;99.90;;;;;;5049608;28;20462;-53
2022/11/26 07:14:15;;;;;;;23.50;12.80;;;7.50;99.90;;;;;;5049143;28;20466;-52
2022/11/26 07:16:42;;;;;;;27.00;12.93;;;7.50;99.90;;;;;;5049359;28;20511;-53
2022/11/26 07:19:13;;;;;;;21.70;12.63;;;7.50;99.90;;;;;;5049217;28;20505;-52
2022/11/26 07:21:41;;;;;;;27.97;12.63;;;7.40;99.90;;;;;;5050757;28;20458;-53
2022/11/26 07:24:07;;;;;;;25.90;11.70;;;7.50;99.90;;;;;;5047753;28;20482;-52
2022/11/26 07:26:34;;;;;;;24.10;12.10;;;7.50;99.90;;;;;;5051564;28;20524;-52
2022/11/26 07:29:01;;;;;;;26.50;13.07;;;7.50;99.90;;;;;;5050026;28;20465;-53
2022/11/26 07:31:28;;;;;;;19.33;11.77;;;7.50;99.90;;;;;;5046817;28;20480;-52
2022/11/26 07:33:55;;;;;;;25.90;12.97;;;7.50;99.90;;;;;;5045805;28;20458;-52
2022/11/26 07:36:24;;;;;;;24.97;11.83;;;7.50;99.90;;;;;;5047679;28;21020;-52
2022/11/26 07:38:55;;;;;;;31.53;12.67;;;7.50;99.90;;;;;;5048240;28;20544;-52
2022/11/26 07:41:25;;;;;;;31.40;11.63;;;7.50;99.90;;;;;;5052880;28;20521;-53
2022/11/26 07:43:52;;;;;;;21.70;12.00;;;7.50;99.90;;;;;;5050222;28;20199;-53
2022/11/26 07:46:23;;;;;;;28.23;13.03;;;7.50;99.90;;;;;;5055689;28;20530;-53
2022/11/26 07:48:50;;;;;;;17.80;10.47;;;7.50;99.90;;;;;;5057921;28;20457;-53
2022/11/26 07:51:19;;;;;;;27.77;11.80;;;7.60;99.90;;;;;;5055838;28;20485;-53
2022/11/26 07:53:46;;;;;;;29.73;12.70;;;7.50;99.90;;;;;;5054199;28;20515;-52
2022/11/26 07:56:14;;;;;;;22.60;11.43;;;7.60;99.90;;;;;;5051001;28;21256;-53
2022/11/26 07:58:41;;;;;;;23.97;12.97;;;7.60;99.90;;;;;;5054106;28;20470;-53
2022/11/26 08:01:09;;;;;;;24.43;11.37;;;7.60;99.90;;;;;;5050580;28;20552;-52
2022/11/26 08:03:39;;;;;;;17.90;10.43;;;7.60;99.90;;;;;;5045836;28;20863;-53
2022/11/26 08:06:10;;;;;;;20.73;11.03;;;7.60;99.90;;;;;;5048766;28;20482;-53
2022/11/26 08:08:37;;;;;;;26.03;11.73;;;7.60;99.90;;;;;;5049780;28;20497;-54
2022/11/26 08:11:11;;;;;;;27.30;11.20;;;7.60;99.90;;;;;;5057981;28;20492;-53
2022/11/26 08:13:39;;;;;;;26.70;11.13;;;7.60;99.90;;;;;;5054162;28;20457;-52
2022/11/26 08:16:06;;;;;;;24.93;11.60;;;7.60;99.90;;;;;;5049786;28;20504;-52
2022/11/26 08:18:33;;;;;;;28.03;10.77;;;7.60;99.90;;;;;;5052379;28;20532;-52
2022/11/26 08:21:00;;;;;;;20.87;10.17;;;7.70;99.90;;;;;;5050502;28;20547;-52
2022/11/26 08:23:28;;;;;;;20.43;10.37;;;7.60;99.90;;;;;;5052172;28;20461;-52
2022/11/26 08:25:55;;;;;;;21.40;9.90;;;7.70;99.90;;;;;;5057678;28;20892;-53
2022/11/26 08:28:22;;;;;;;27.67;11.03;;;7.70;99.90;;;;;;5046861;28;20461;-51
2022/11/26 08:30:50;;;;;;;21.20;9.27;;;7.70;99.90;;;;;;5049797;28;20524;-52
2022/11/26 08:33:17;;;;;;;21.70;11.80;;;7.80;99.90;;;;;;5044319;28;20519;-52
2022/11/26 08:35:44;;;;;;;28.37;10.53;;;7.80;99.90;;;;;;5048566;28;21208;-53
2022/11/26 08:38:10;;;;;;;23.77;11.67;;;7.80;99.90;;;;;;5049306;28;20457;-53
2022/11/26 08:40:37;;;;;;;20.13;10.73;;;7.80;99.90;;;;;;5050791;28;20486;-53
2022/11/26 08:43:03;;;;;;;20.77;10.23;;;7.80;99.90;;;;;;5043790;28;20881;-52
2022/11/26 08:45:30;;;;;;;26.23;9.70;;;7.80;99.90;;;;;;5041001;28;20539;-52
2022/11/26 08:47:58;;;;;;;21.53;10.07;;;7.80;99.90;;;;;;5052421;28;20489;-52
2022/11/26 08:50:24;;;;;;;19.83;10.30;;;7.80;99.90;;;;;;5049027;28;21051;-52
2022/11/26 08:52:51;;;;;;;17.87;9.20;;;7.80;99.90;;;;;;5049997;28;20457;-52
2022/11/26 08:55:17;;;;;;;25.67;9.93;;;7.80;99.90;;;;;;5048980;28;20454;-53
2022/11/26 08:57:46;;;;;;;22.17;10.93;;;7.80;99.90;;;;;;5049630;28;20458;-53
2022/11/26 09:00:13;;;;;;;39.23;10.77;;;7.80;99.90;;;;;;5044349;28;20485;-52
2022/11/26 09:02:40;;;;;;;45.20;20.83;;;7.80;99.90;;;;;;5040457;28;20990;-52
2022/11/26 09:05:09;;;;;;;20.40;10.97;;;7.80;99.90;;;;;;5048289;28;20762;-52
2022/11/26 09:07:35;;;;;;;17.37;8.83;;;7.90;99.90;;;;;;5045780;28;20466;-53
2022/11/26 09:10:02;;;;;;;20.27;9.77;;;7.80;99.90;;;;;;5047879;28;20559;-52
2022/11/26 09:12:28;;;;;;;17.90;9.20;;;7.90;99.90;;;;;;5030076;28;20597;-53
2022/11/26 09:14:55;;;;;;;48.37;22.60;;;7.90;99.90;;;;;;5047497;28;20458;-53
2022/11/26 09:17:22;;;;;;;18.43;9.33;;;7.90;99.90;;;;;;5037433;28;20469;-52
2022/11/26 09:19:48;;;;;;;20.93;8.33;;;7.80;99.90;;;;;;5040376;28;22086;-52
2022/11/26 09:22:16;;;;;;;21.90;8.20;;;7.80;99.90;;;;;;5048360;28;20458;-52
2022/11/26 09:24:43;;;;;;;17.07;8.40;;;7.90;99.90;;;;;;5041691;28;20535;-53
2022/11/26 09:27:11;;;;;;;21.77;8.60;;;7.90;99.90;;;;;;5043550;28;20532;-52
2022/11/26 09:29:37;;;;;;;19.00;7.80;;;7.90;99.90;;;;;;5036126;28;21075;-52
2022/11/26 09:32:04;;;;;;;21.60;9.07;;;7.90;99.90;;;;;;5045368;28;20461;-52
2022/11/26 09:34:31;;;;;;;21.03;7.80;;;7.90;99.90;;;;;;5050567;28;20858;-52
2022/11/26 09:36:58;;;;;;;24.27;7.10;;;7.90;99.90;;;;;;5048645;28;20461;-53
2022/11/26 09:39:26;;;;;;;11.90;6.70;;;7.80;99.90;;;;;;5049000;28;20531;-53
2022/11/26 09:42:00;;;;;;;19.73;7.50;;;7.80;99.90;;;;;;5040377;28;20511;-52
2022/11/26 09:44:38;;;;;;;22.17;7.80;;;7.80;99.90;;;;;;5050317;28;20469;-52
2022/11/26 09:47:11;;;;;;;27.63;9.10;;;7.80;99.90;;;;;;5046893;28;20881;-52
2022/11/26 09:49:44;;;;;;;23.80;8.30;;;7.80;99.90;;;;;;5036179;28;21010;-52
2022/11/26 09:52:14;;;;;;;21.23;6.73;;;7.80;99.90;;;;;;5045457;28;20607;-52
2022/11/26 09:54:43;;;;;;;20.20;7.17;;;7.70;99.90;;;;;;5045282;28;21070;-52
2022/11/26 09:57:23;;;;;;;18.33;6.33;;;7.70;99.90;;;;;;5050775;28;20486;-53
2022/11/26 09:59:51;;;;;;;19.97;8.07;;;7.70;99.90;;;;;;5047244;28;20975;-52
2022/11/26 10:02:18;;;;;;;17.70;7.00;;;7.70;99.90;;;;;;5051454;28;20454;-52
2022/11/26 10:04:47;;;;;;;15.80;7.20;;;7.80;99.90;;;;;;5055466;28;20918;-52
2022/11/26 10:07:29;;;;;;;21.47;7.20;;;7.70;99.90;;;;;;5051960;28;20516;-52
2022/11/26 10:10:07;;;;;;;15.70;6.70;;;7.70;99.90;;;;;;5050817;28;20489;-51
2022/11/26 10:12:44;;;;;;;16.87;6.30;;;7.70;99.90;;;;;;5047704;28;20478;-51
2022/11/26 10:15:16;;;;;;;17.60;6.57;;;7.70;99.90;;;;;;5047307;28;20951;-52
2022/11/26 10:17:54;;;;;;;20.03;7.60;;;7.70;99.90;;;;;;5048243;28;20465;-52
2022/11/26 10:20:47;;;;;;;15.47;6.80;;;7.70;99.90;;;;;;5052577;28;20481;-52
2022/11/26 10:23:20;;;;;;;18.33;6.40;;;7.70;99.90;;;;;;5048939;28;20487;-53
2022/11/26 10:25:52;;;;;;;30.70;7.40;;;7.70;99.90;;;;;;5061508;28;20543;-53
2022/11/26 10:28:22;;;;;;;21.70;7.97;;;7.70;99.90;;;;;;5051751;28;20497;-52
2022/11/26 10:30:55;;;;;;;28.10;7.47;;;7.80;99.90;;;;;;5050058;28;20543;-52
2022/11/26 10:33:22;;;;;;;17.80;7.30;;;7.80;99.90;;;;;;5054225;28;20995;-53
2022/11/26 10:35:49;;;;;;;19.47;7.20;;;7.70;99.90;;;;;;5053855;28;20480;-52
2022/11/26 10:38:16;;;;;;;20.43;6.73;;;7.70;99.90;;;;;;5049808;28;20523;-52
2022/11/26 10:40:43;;;;;;;18.93;7.10;;;7.70;99.90;;;;;;5052813;28;21017;-52
2022/11/26 10:43:17;;;;;;;23.50;8.90;;;7.70;99.90;;;;;;5056158;28;20466;-52
2022/11/26 10:45:49;;;;;;;16.53;6.60;;;7.60;99.90;;;;;;5053304;28;20489;-52
2022/11/26 10:48:24;;;;;;;16.83;7.53;;;7.60;99.90;;;;;;5046866;28;20466;-53
2022/11/26 10:51:08;;;;;;;17.70;6.90;;;7.60;99.90;;;;;;5051950;28;20480;-51
2022/11/26 10:53:46;;;;;;;15.00;7.03;;;7.60;99.90;;;;;;5051828;28;20464;-53
2022/11/26 10:56:18;;;;;;;17.20;7.37;;;7.60;99.90;;;;;;5049683;28;20461;-52
2022/11/26 10:58:48;;;;;;;24.13;7.30;;;7.60;99.90;;;;;;5049011;28;20466;-52
2022/11/26 11:01:16;;;;;;;21.03;6.30;;;7.70;99.90;;;;;;5043744;28;20883;-52
2022/11/26 11:03:49;;;;;;;19.13;6.60;;;7.70;99.90;;;;;;5048174;28;20457;-53
2022/11/26 11:06:34;;;;;;;15.97;7.20;;;7.70;99.90;;;;;;5049278;28;20477;-52
2022/11/26 11:09:16;;;;;;;20.77;6.13;;;7.70;99.90;;;;;;5045617;28;20458;-50
2022/11/26 11:11:42;;;;;;;16.90;5.63;;;7.70;99.90;;;;;;5045238;28;20449;-52
2022/11/26 11:14:27;;;;;;;15.23;5.63;;;7.70;99.90;;;;;;5047531;28;20810;-51
2022/11/26 11:16:53;;;;;;;13.20;5.77;;;7.70;99.90;;;;;;5049673;28;20454;-51
2022/11/26 11:19:24;;;;;;;25.93;6.73;;;7.70;99.90;;;;;;5048698;28;21011;-52
2022/11/26 11:21:50;;;;;;;13.60;5.10;;;7.60;99.90;;;;;;5052388;28;20880;-53
2022/11/26 11:24:22;;;;;;;10.77;5.20;;;7.60;99.90;;;;;;5050077;28;20462;-53
2022/11/26 11:26:52;;;;;;;10.63;5.33;;;7.70;99.90;;;;;;5052213;28;20477;-51
2022/11/26 11:29:32;;;;;;;19.00;5.80;;;7.70;99.90;;;;;;5047970;28;20553;-53
2022/11/26 11:32:03;;;;;;;13.77;5.50;;;7.70;99.90;;;;;;5050408;28;20540;-53
2022/11/26 11:34:32;;;;;;;14.30;5.03;;;7.60;99.90;;;;;;5039345;28;21333;-52
2022/11/26 11:37:00;;;;;;;59.87;38.33;;;7.60;99.90;;;;;;5043818;28;20466;-52
2022/11/26 11:39:29;;;;;;;15.77;9.10;;;7.60;99.90;;;;;;5048457;28;20485;-51
2022/11/26 11:41:56;;;;;;;9.30;5.60;;;7.60;99.90;;;;;;5051011;28;20527;-52
2022/11/26 11:44:36;;;;;;;23.30;15.80;;;7.70;99.90;;;;;;5047940;28;20465;-51
2022/11/26 11:47:28;;;;;;;27.53;11.53;;;7.60;99.90;;;;;;5048974;28;20485;-52
2022/11/26 11:50:16;;;;;;;15.27;6.33;;;7.70;99.90;;;;;;5046841;28;20481;-53
2022/11/26 11:52:55;;;;;;;18.77;7.17;;;7.70;99.90;;;;;;5045151;28;20508;-52
2022/11/26 11:55:30;;;;;;;19.77;8.97;;;7.80;99.90;;;;;;5046994;28;20499;-52
2022/11/26 11:58:14;;;;;;;31.57;11.73;;;7.80;99.90;;;;;;5044753;28;20485;-53
2022/11/26 12:00:52;;;;;;;13.60;7.27;;;7.80;99.90;;;;;;5050866;28;20890;-52
2022/11/26 12:03:54;;;;;;;13.00;7.20;;;7.80;99.90;;;;;;5047095;28;20453;-52
2022/11/26 12:06:30;;;;;;;15.63;7.33;;;7.80;99.90;;;;;;5017075;28;20485;-51
2022/11/26 12:09:07;;;;;;;14.90;7.43;;;7.80;99.90;;;;;;5037467;28;20472;-52
2022/11/26 12:11:44;;;;;;;17.83;7.00;;;7.80;99.90;;;;;;5036229;28;20462;-51
2022/11/26 12:14:17;;;;;;;12.50;6.20;;;7.80;99.90;;;;;;5045386;28;20469;-51
2022/11/26 12:16:48;;;;;;;13.80;6.40;;;7.80;99.90;;;;;;5038515;28;20465;-53
2022/11/26 12:19:24;;;;;;;20.70;10.97;;;7.80;99.90;;;;;;5033702;28;20995;-52
2022/11/26 12:21:54;;;;;;;23.20;7.40;;;7.80;99.90;;;;;;5042807;28;20594;-52
2022/11/26 12:24:31;;;;;;;10.70;5.00;;;7.80;99.90;;;;;;5042051;28;20466;-53
2022/11/26 12:27:02;;;;;;;13.67;5.73;;;7.80;99.90;;;;;;5042112;28;20477;-52
2022/11/26 12:29:35;;;;;;;26.30;10.27;;;7.80;99.90;;;;;;5046516;28;20552;-52
2022/11/26 12:32:11;;;;;;;56.10;23.77;;;7.80;99.90;;;;;;5050278;28;20466;-52
2022/11/26 12:34:43;;;;;;;39.97;15.80;;;7.70;99.90;;;;;;5050305;28;20472;-51
2022/11/26 12:37:17;;;;;;;52.60;18.50;;;7.80;99.90;;;;;;5041835;28;20961;-52
2022/11/26 12:39:51;;;;;;;26.33;11.00;;;7.80;99.90;;;;;;5052712;28;21060;-51
2022/11/26 12:42:23;;;;;;;16.40;7.97;;;7.90;99.90;;;;;;5044763;28;20534;-52
2022/11/26 12:44:51;;;;;;;15.27;6.87;;;7.90;99.90;;;;;;5052172;28;20458;-51
2022/11/26 12:47:26;;;;;;;21.90;8.47;;;7.90;99.90;;;;;;5050485;28;20485;-51
2022/11/26 12:50:06;;;;;;;17.43;10.33;;;7.80;99.90;;;;;;5046284;28;20485;-52
2022/11/26 12:52:40;;;;;;;18.73;7.77;;;7.80;99.90;;;;;;5051913;28;20458;-52